SKUC

Details ICAO SKUC (AUC)
Name SANTIAGO PEREZ
Region Colombia
Timezone America/Bogota (UTC-5.0)
Plans Departing 5
Arriving 6
Stats Elevation 420 ft / 128 m (AMSL)
Location 7.068880° -70.736924°
Runways 1
Magnetic Variation 9.791° W
Sunrise 2017-12-14 10:47:40 UTC / 2017-12-14 05:47:40 Local
Sunset 2017-12-14 22:30:34 UTC / 2017-12-14 17:30:34 Local
Advertisement - Login to hide

Runways

ID Width Length Bearing (true) Bearing (mag) Surface Threshold Offset Overrun Length
11 98 ft / 30 m 6,898 ft / 2,103 m 97.61° 107.40° Asphalt 0 ft / 0 m 0 ft / 0 m
29 98 ft / 30 m 6,898 ft / 2,103 m 277.62° 287.41° Asphalt 0 ft / 0 m 0 ft / 0 m

Map

Weather


0- 5 10 15 20 25 30 35+ Temperature / ° C

Clouds and Precipitation
Forecast for 2017-12-14 18:00 UTC. Updated 3 minutes ago

Ground ~20,000 ft ~40,000 ft Winds

METAR

SKUC 141500Z 05003KT 9999 SCT020 27/24 A2997 REDZ

TAF

Not found

Frequencies

Tower 118.10 MHz TWR
Warning: Do not use this data for real-world aviation or navigation. No guarantee of current accuracy is given.